Terminal Aerodrome Forecast
Issued by NWS Boston, MA

Home | Current Version | Previous Version | Text Only | Print | Product List | Glossary On
Versions: 1 2 3 4 5 6 7 8 9 10 11 12 13 14 15 16 17 18 19 20 21 22 23 24 25 26 27 28 29 30 31 32 33 34 35 36 37 38
000
FTUS41 KBOX 302323
TAFORH
TAF
KORH 302323Z 3100/3124 21014G23KT P6SM SKC
     FM310400 22014KT P6SM BKN060
     FM310700 23012KT P6SM BKN020
     FM310900 23011KT P6SM OVC008
     FM311200 24012KT P6SM -SHRA OVC008
     FM311800 02007KT 2SM +SHRA BR OVC010
     FM312100 05011KT 1SM +SHRA BR OVC010=

USA.gov is the U.S. government's official web portal to all federal, state and local government web resources and services.